createdAt,value
2017-08-28T00:00:30.335Z,860.80
2017-08-28T00:01:30.328Z,860.80
2017-08-28T00:02:30.324Z,860.77
2017-08-28T00:03:30.320Z,860.78
2017-08-28T00:04:30.411Z,860.78
2017-08-28T00:05:30.306Z,860.77
2017-08-28T00:06:30.300Z,860.78
2017-08-28T00:07:30.293Z,860.75
2017-08-28T00:08:30.289Z,860.74
2017-08-28T00:09:30.282Z,860.74
2017-08-28T00:10:30.377Z,860.77
2017-08-28T00:11:30.269Z,860.78
2017-08-28T00:12:30.264Z,860.82
2017-08-28T00:13:30.259Z,860.79
2017-08-28T00:14:30.255Z,860.81
2017-08-28T00:15:30.247Z,860.77
2017-08-28T00:16:30.341Z,860.76
2017-08-28T00:17:30.236Z,860.75
2017-08-28T00:18:30.330Z,860.81
2017-08-28T00:19:30.224Z,860.77
2017-08-28T00:20:30.218Z,860.78
2017-08-28T00:21:30.213Z,860.76
2017-08-28T00:22:30.307Z,860.77
2017-08-28T00:23:30.201Z,860.77
2017-08-28T00:24:30.195Z,860.76
2017-08-28T00:25:30.190Z,860.78
2017-08-28T00:26:30.184Z,860.75
2017-08-28T00:27:30.179Z,860.76
2017-08-28T00:28:30.272Z,860.71
2017-08-28T00:29:30.167Z,860.72
2017-08-28T00:30:30.161Z,860.72
2017-08-28T00:31:30.156Z,860.71
2017-08-28T00:32:30.150Z,860.68
2017-08-28T00:33:30.145Z,860.72
2017-08-28T00:34:30.242Z,860.72
2017-08-28T00:35:30.131Z,860.70
2017-08-28T00:36:30.127Z,860.71
2017-08-28T00:37:30.121Z,860.68
2017-08-28T00:38:30.119Z,860.69
2017-08-28T00:39:30.109Z,860.64
2017-08-28T00:40:30.202Z,860.65
2017-08-28T00:41:30.096Z,860.62
2017-08-28T00:42:30.093Z,860.61
2017-08-28T00:43:30.085Z,860.63
2017-08-28T00:44:30.078Z,860.59
2017-08-28T00:45:30.077Z,860.63
2017-08-28T00:46:30.167Z,860.59
2017-08-28T00:47:30.061Z,860.57
2017-08-28T00:48:30.055Z,860.58
2017-08-28T00:49:30.051Z,860.55
2017-08-28T00:50:30.044Z,860.53
2017-08-28T00:51:30.038Z,860.53
2017-08-28T00:52:30.132Z,860.52
2017-08-28T00:53:30.025Z,860.52
2017-08-28T00:54:30.020Z,860.49
2017-08-28T00:55:30.014Z,860.49
2017-08-28T00:56:30.009Z,860.47
2017-08-28T00:57:30.001Z,860.45
2017-08-28T00:58:30.097Z,860.40
2017-08-28T00:59:29.990Z,860.45
2017-08-28T01:00:29.984Z,860.41
2017-08-28T01:01:29.978Z,860.44
2017-08-28T01:02:29.974Z,860.40
2017-08-28T01:03:29.973Z,860.40
2017-08-28T01:04:30.060Z,860.39
2017-08-28T01:05:29.954Z,860.40
2017-08-28T01:06:29.950Z,860.36
2017-08-28T01:07:29.942Z,860.33
2017-08-28T01:08:29.936Z,860.33
2017-08-28T01:09:29.932Z,860.31
2017-08-28T01:10:30.024Z,860.30
2017-08-28T01:11:29.917Z,860.27
2017-08-28T01:12:29.914Z,860.27
2017-08-28T01:13:29.906Z,860.28
2017-08-28T01:14:29.898Z,860.29
2017-08-28T01:15:29.895Z,860.29
2017-08-28T01:16:29.986Z,860.34
2017-08-28T01:17:29.880Z,860.29
2017-08-28T01:18:29.875Z,860.27
2017-08-28T01:19:29.869Z,860.29
2017-08-28T01:20:29.863Z,860.30
2017-08-28T01:21:29.857Z,860.28
2017-08-28T01:22:29.950Z,860.29
2017-08-28T01:23:29.846Z,860.27
2017-08-28T01:24:29.834Z,860.31
2017-08-28T01:25:29.831Z,860.28
2017-08-28T01:26:29.824Z,860.30
2017-08-28T01:27:29.816Z,860.25
2017-08-28T01:28:29.909Z,860.25
2017-08-28T01:29:29.810Z,860.25
2017-08-28T01:30:29.800Z,860.22
2017-08-28T01:31:29.795Z,860.25
2017-08-28T01:32:29.785Z,860.28
2017-08-28T01:33:29.778Z,860.27
2017-08-28T01:34:29.873Z,860.31
2017-08-28T01:35:29.766Z,860.29
2017-08-28T01:36:29.759Z,860.32
2017-08-28T01:37:29.752Z,860.31
2017-08-28T01:38:29.747Z,860.30
2017-08-28T01:39:29.739Z,860.32
2017-08-28T01:40:29.834Z,860.29
2017-08-28T01:41:29.727Z,860.28
2017-08-28T01:42:29.719Z,860.28
2017-08-28T01:43:29.714Z,860.25
2017-08-28T01:44:29.708Z,860.24
2017-08-28T01:45:29.701Z,860.22
2017-08-28T01:46:29.795Z,860.24
2017-08-28T01:47:29.688Z,860.24
2017-08-28T01:48:29.682Z,860.25
2017-08-28T01:49:29.677Z,860.26
2017-08-28T01:50:29.670Z,860.24
2017-08-28T01:51:29.670Z,860.20
2017-08-28T01:52:29.759Z,860.23
2017-08-28T01:53:29.650Z,860.23
2017-08-28T01:54:29.642Z,860.25
2017-08-28T01:55:29.637Z,860.23
2017-08-28T01:56:29.628Z,860.23
2017-08-28T01:57:29.724Z,860.23
2017-08-28T01:58:29.616Z,860.21
2017-08-28T01:59:29.610Z,860.17
2017-08-28T02:00:29.704Z,860.20
2017-08-28T02:01:29.598Z,860.21
2017-08-28T02:02:29.592Z,860.21
2017-08-28T02:03:29.585Z,860.25
2017-08-28T02:04:29.577Z,860.27
2017-08-28T02:05:29.571Z,860.23
2017-08-28T02:06:29.665Z,860.22
2017-08-28T02:07:29.556Z,860.20
2017-08-28T02:08:29.551Z,860.22
2017-08-28T02:09:29.545Z,860.27
2017-08-28T02:10:29.539Z,860.26
2017-08-28T02:11:29.531Z,860.24
2017-08-28T02:12:29.625Z,860.26
2017-08-28T02:13:29.518Z,860.26
2017-08-28T02:14:29.512Z,860.28
2017-08-28T02:15:29.504Z,860.26
2017-08-28T02:16:29.499Z,860.22
2017-08-28T02:17:29.491Z,860.24
2017-08-28T02:18:29.585Z,860.21
2017-08-28T02:19:29.477Z,860.23
2017-08-28T02:20:29.471Z,860.24
2017-08-28T02:21:29.464Z,860.21
2017-08-28T02:22:29.458Z,860.21
2017-08-28T02:23:29.551Z,860.19
2017-08-28T02:24:29.543Z,860.20
2017-08-28T02:25:29.436Z,860.17
2017-08-28T02:26:29.431Z,860.15
2017-08-28T02:27:29.424Z,860.17
2017-08-28T02:28:29.416Z,860.20
2017-08-28T02:29:29.409Z,860.18
2017-08-28T02:30:29.502Z,860.18
2017-08-28T02:31:29.396Z,860.16
2017-08-28T02:32:29.387Z,860.16
2017-08-28T02:33:29.383Z,860.15
2017-08-28T02:34:29.375Z,860.14
2017-08-28T02:35:29.368Z,860.16
2017-08-28T02:36:29.462Z,860.15
2017-08-28T02:37:29.354Z,860.15
2017-08-28T02:38:29.348Z,860.18
2017-08-28T02:39:29.340Z,860.21
2017-08-28T02:40:29.333Z,860.22
2017-08-28T02:41:29.327Z,860.23
2017-08-28T02:42:29.420Z,860.18
2017-08-28T02:43:29.313Z,860.19
2017-08-28T02:44:29.306Z,860.17
2017-08-28T02:45:29.300Z,860.19
2017-08-28T02:46:29.293Z,860.13
2017-08-28T02:47:29.287Z,860.16
2017-08-28T02:48:29.379Z,860.12
2017-08-28T02:49:29.272Z,860.10
2017-08-28T02:50:29.266Z,860.08
2017-08-28T02:51:29.259Z,860.06
2017-08-28T02:52:29.252Z,860.05
2017-08-28T02:53:29.245Z,860.07
2017-08-28T02:54:29.339Z,860.03
2017-08-28T02:55:29.231Z,860.03
2017-08-28T02:56:29.226Z,860.02
2017-08-28T02:57:29.218Z,860.05
2017-08-28T02:58:29.211Z,860.04
2017-08-28T02:59:29.207Z,860.00
2017-08-28T03:00:29.298Z,859.97
2017-08-28T03:01:29.190Z,859.96
2017-08-28T03:02:29.185Z,859.99
2017-08-28T03:03:29.177Z,859.97
2017-08-28T03:04:29.170Z,859.96
2017-08-28T03:05:29.163Z,859.99
2017-08-28T03:06:29.258Z,859.99
2017-08-28T03:07:29.150Z,859.99
2017-08-28T03:08:29.144Z,859.99
2017-08-28T03:09:29.137Z,859.97
2017-08-28T03:10:29.129Z,859.99
2017-08-28T03:11:29.123Z,860.02
2017-08-28T03:12:29.216Z,859.98
2017-08-28T03:13:29.110Z,860.00
2017-08-28T03:14:29.102Z,859.98
2017-08-28T03:15:29.097Z,860.00
2017-08-28T03:16:29.088Z,859.94
2017-08-28T03:17:29.082Z,859.93
2017-08-28T03:18:29.176Z,859.93
2017-08-28T03:19:29.068Z,859.94
2017-08-28T03:20:29.062Z,859.96
2017-08-28T03:21:29.053Z,859.93
2017-08-28T03:22:29.048Z,859.93
2017-08-28T03:23:29.040Z,859.95
2017-08-28T03:24:29.133Z,859.91
2017-08-28T03:25:29.026Z,859.94
2017-08-28T03:26:29.020Z,859.94
2017-08-28T03:27:29.012Z,859.95
2017-08-28T03:28:29.008Z,859.93
2017-08-28T03:29:28.999Z,859.89
2017-08-28T03:30:29.095Z,859.88
2017-08-28T03:31:28.983Z,859.94
2017-08-28T03:32:28.977Z,859.95
2017-08-28T03:33:28.970Z,859.98
2017-08-28T03:34:28.964Z,859.94
2017-08-28T03:35:28.955Z,859.94
2017-08-28T03:36:29.049Z,859.94
2017-08-28T03:37:28.940Z,859.93
2017-08-28T03:38:28.934Z,859.91
2017-08-28T03:39:28.927Z,859.88
2017-08-28T03:40:28.920Z,859.86
2017-08-28T03:41:28.911Z,859.86
2017-08-28T03:42:29.007Z,859.85
2017-08-28T03:43:28.899Z,859.83
2017-08-28T03:44:28.891Z,859.88
2017-08-28T03:45:28.884Z,859.83
2017-08-28T03:46:28.877Z,859.77
2017-08-28T03:47:28.870Z,859.80
2017-08-28T03:48:28.962Z,859.80
2017-08-28T03:49:28.855Z,859.78
2017-08-28T03:50:28.848Z,859.71
2017-08-28T03:51:28.840Z,859.71
2017-08-28T03:52:28.833Z,859.69
2017-08-28T03:53:28.826Z,859.73
2017-08-28T03:54:28.920Z,859.70
2017-08-28T03:55:28.811Z,859.71
2017-08-28T03:56:28.804Z,859.71
2017-08-28T03:57:28.796Z,859.73
2017-08-28T03:58:28.789Z,859.76
2017-08-28T03:59:28.782Z,859.71
2017-08-28T04:00:28.952Z,859.74
2017-08-28T04:01:28.784Z,859.75
2017-08-28T04:02:28.760Z,859.75
2017-08-28T04:03:28.753Z,859.79
2017-08-28T04:04:28.746Z,859.74
2017-08-28T04:05:28.763Z,859.80
2017-08-28T04:06:28.832Z,859.78
2017-08-28T04:07:28.723Z,859.79
2017-08-28T04:08:28.716Z,859.76
2017-08-28T04:09:28.707Z,859.74
2017-08-28T04:10:28.701Z,859.77
2017-08-28T04:11:28.694Z,859.74
2017-08-28T04:12:28.787Z,859.77
2017-08-28T04:13:28.680Z,859.76
2017-08-28T04:14:28.673Z,859.76
2017-08-28T04:15:28.666Z,859.79
2017-08-28T04:16:28.658Z,859.80
2017-08-28T04:17:28.674Z,859.82
2017-08-28T04:18:28.746Z,859.82
2017-08-28T04:19:28.636Z,859.82
2017-08-28T04:20:28.629Z,859.81
2017-08-28T04:21:28.622Z,859.81
2017-08-28T04:22:28.614Z,859.82
2017-08-28T04:23:28.607Z,859.81
2017-08-28T04:24:28.699Z,859.83
2017-08-28T04:25:28.592Z,859.83
2017-08-28T04:26:28.586Z,859.83
2017-08-28T04:27:28.579Z,859.87
2017-08-28T04:28:28.572Z,859.91
2017-08-28T04:29:28.567Z,859.90
2017-08-28T04:30:28.659Z,859.93
2017-08-28T04:31:28.550Z,859.96
2017-08-28T04:32:28.543Z,859.94
2017-08-28T04:33:28.536Z,859.99
2017-08-28T04:34:28.529Z,859.96
2017-08-28T04:35:28.521Z,859.99
2017-08-28T04:36:28.614Z,860.03
2017-08-28T04:37:28.507Z,860.00
2017-08-28T04:38:28.500Z,860.01
2017-08-28T04:39:28.490Z,859.99
2017-08-28T04:40:28.485Z,860.01
2017-08-28T04:41:28.478Z,860.02
2017-08-28T04:42:28.572Z,860.01
2017-08-28T04:43:28.463Z,860.00
2017-08-28T04:44:28.457Z,859.97
2017-08-28T04:45:28.449Z,860.04
2017-08-28T04:46:28.442Z,860.01
2017-08-28T04:47:28.434Z,860.03
2017-08-28T04:48:28.526Z,860.02
2017-08-28T04:49:28.424Z,860.02
2017-08-28T04:50:28.413Z,860.07
2017-08-28T04:51:28.406Z,860.08
2017-08-28T04:52:28.398Z,860.08
2017-08-28T04:53:28.390Z,860.09
2017-08-28T04:54:28.483Z,860.03
2017-08-28T04:55:28.375Z,860.09
2017-08-28T04:56:28.368Z,860.13
2017-08-28T04:57:28.361Z,860.11
2017-08-28T04:58:28.356Z,860.13
2017-08-28T04:59:28.348Z,860.13
2017-08-28T05:00:28.438Z,860.11
2017-08-28T05:01:28.332Z,860.11
2017-08-28T05:02:28.324Z,860.10
2017-08-28T05:03:28.319Z,860.08
2017-08-28T05:04:28.309Z,860.13
2017-08-28T05:05:28.301Z,860.11
2017-08-28T05:06:28.395Z,860.10
2017-08-28T05:07:28.286Z,860.12
2017-08-28T05:08:28.279Z,860.12
2017-08-28T05:09:28.271Z,860.09
2017-08-28T05:10:28.265Z,860.11
2017-08-28T05:11:28.257Z,860.13
2017-08-28T05:12:28.350Z,860.14
2017-08-28T05:13:28.243Z,860.15
2017-08-28T05:14:28.235Z,860.13
2017-08-28T05:15:28.228Z,860.16
2017-08-28T05:16:28.224Z,860.13
2017-08-28T05:17:28.214Z,860.17
2017-08-28T05:18:28.307Z,860.16
2017-08-28T05:19:28.198Z,860.14
2017-08-28T05:20:28.192Z,860.14
2017-08-28T05:21:28.187Z,860.17
2017-08-28T05:22:28.179Z,860.17
2017-08-28T05:23:28.171Z,860.18
2017-08-28T05:24:28.263Z,860.18
2017-08-28T05:25:28.164Z,860.21
2017-08-28T05:26:28.148Z,860.18
2017-08-28T05:27:28.142Z,860.17
2017-08-28T05:28:28.134Z,860.17
2017-08-28T05:29:28.127Z,860.18
2017-08-28T05:30:28.220Z,860.17
2017-08-28T05:31:28.113Z,860.18
2017-08-28T05:32:28.106Z,860.15
2017-08-28T05:33:28.100Z,860.21
2017-08-28T05:34:28.092Z,860.19
2017-08-28T05:35:28.084Z,860.17
2017-08-28T05:36:28.179Z,860.19
2017-08-28T05:37:28.071Z,860.19
2017-08-28T05:38:28.065Z,860.22
2017-08-28T05:39:28.056Z,860.18
2017-08-28T05:40:28.051Z,860.22
2017-08-28T05:41:28.043Z,860.24
2017-08-28T05:42:28.186Z,860.23
2017-08-28T05:43:28.027Z,860.24
2017-08-28T05:44:28.022Z,860.22
2017-08-28T05:45:28.015Z,860.25
2017-08-28T05:46:28.008Z,860.25
2017-08-28T05:47:28.001Z,860.22
2017-08-28T05:48:28.094Z,860.21
2017-08-28T05:49:27.988Z,860.26
2017-08-28T05:50:27.980Z,860.23
2017-08-28T05:51:27.972Z,860.24
2017-08-28T05:52:27.964Z,860.20
2017-08-28T05:53:27.958Z,860.22
2017-08-28T05:54:28.052Z,860.21
2017-08-28T05:55:27.944Z,860.22
2017-08-28T05:56:27.937Z,860.26
2017-08-28T05:57:27.930Z,860.26
2017-08-28T05:58:27.923Z,860.25
2017-08-28T05:59:27.916Z,860.27
2017-08-28T06:00:28.009Z,860.29
2017-08-28T06:01:27.907Z,860.27
2017-08-28T06:02:27.896Z,860.27
2017-08-28T06:03:27.887Z,860.26
2017-08-28T06:04:27.881Z,860.24
2017-08-28T06:05:27.874Z,860.22
2017-08-28T06:06:27.970Z,860.22
2017-08-28T06:07:27.859Z,860.24
2017-08-28T06:08:27.853Z,860.24
2017-08-28T06:09:27.845Z,860.24
2017-08-28T06:10:27.840Z,860.18
2017-08-28T06:11:27.832Z,860.18
2017-08-28T06:12:27.926Z,860.21
2017-08-28T06:13:27.820Z,860.18
2017-08-28T06:14:27.817Z,860.19
2017-08-28T06:15:27.807Z,860.19
2017-08-28T06:16:27.799Z,860.18
2017-08-28T06:17:27.794Z,860.19
2017-08-28T06:18:27.886Z,860.17
2017-08-28T06:19:27.805Z,860.18
2017-08-28T06:20:27.770Z,860.18
2017-08-28T06:21:27.768Z,860.22
2017-08-28T06:22:27.758Z,860.19
2017-08-28T06:23:27.755Z,860.22
2017-08-28T06:24:27.846Z,860.24
2017-08-28T06:25:27.739Z,860.15
2017-08-28T06:26:27.732Z,860.22
2017-08-28T06:27:27.726Z,860.15
2017-08-28T06:28:27.719Z,860.18
2017-08-28T06:29:27.712Z,860.21
2017-08-28T06:30:27.807Z,860.20
2017-08-28T06:31:27.700Z,860.19
2017-08-28T06:32:27.693Z,860.18
2017-08-28T06:33:27.687Z,860.15
2017-08-28T06:34:27.680Z,860.14
2017-08-28T06:35:27.674Z,860.14
2017-08-28T06:36:27.767Z,860.13
2017-08-28T06:37:27.661Z,860.12
2017-08-28T06:38:27.657Z,860.11
2017-08-28T06:39:27.647Z,860.13
2017-08-28T06:40:27.643Z,860.10
2017-08-28T06:41:27.634Z,860.08
2017-08-28T06:42:27.929Z,860.13
2017-08-28T06:43:27.622Z,860.15
2017-08-28T06:44:27.616Z,860.13
2017-08-28T06:45:27.711Z,860.11
2017-08-28T06:46:27.603Z,860.08
2017-08-28T06:47:27.596Z,860.06
2017-08-28T06:48:27.695Z,860.07
2017-08-28T06:49:27.584Z,860.08
2017-08-28T06:50:27.579Z,860.11
2017-08-28T06:51:27.571Z,860.13
2017-08-28T06:52:27.566Z,860.14
2017-08-28T06:53:27.559Z,860.13
2017-08-28T06:54:27.853Z,860.14
2017-08-28T06:55:27.546Z,860.15
2017-08-28T06:56:27.540Z,860.17
2017-08-28T06:57:27.536Z,860.15
2017-08-28T06:58:27.529Z,860.13
2017-08-28T06:59:27.521Z,860.14
2017-08-28T07:00:27.615Z,860.16
2017-08-28T07:01:27.509Z,860.11
2017-08-28T07:02:27.507Z,860.15
2017-08-28T07:03:27.495Z,860.16
2017-08-28T07:04:27.492Z,860.16
2017-08-28T07:05:27.483Z,860.16
2017-08-28T07:06:27.728Z,860.14
2017-08-28T07:07:27.470Z,860.18
2017-08-28T07:08:27.465Z,860.15
2017-08-28T07:09:27.460Z,860.12
2017-08-28T07:10:27.454Z,860.15
2017-08-28T07:11:27.448Z,860.18
2017-08-28T07:12:27.540Z,860.20
2017-08-28T07:13:27.435Z,860.17
2017-08-28T07:14:27.431Z,860.21
2017-08-28T07:15:27.423Z,860.17
2017-08-28T07:16:27.446Z,860.21
2017-08-28T07:17:27.413Z,860.21
2017-08-28T07:18:27.506Z,860.20
2017-08-28T07:19:27.399Z,860.21
2017-08-28T07:20:27.394Z,860.22
2017-08-28T07:21:27.392Z,860.23
2017-08-28T07:22:27.383Z,860.25
2017-08-28T07:23:27.375Z,860.26
2017-08-28T07:24:27.621Z,860.26
2017-08-28T07:25:27.365Z,860.25
2017-08-28T07:26:27.359Z,860.27
2017-08-28T07:27:27.352Z,860.28
2017-08-28T07:28:27.348Z,860.29
2017-08-28T07:29:27.347Z,860.30
2017-08-28T07:30:27.435Z,860.33
2017-08-28T07:31:27.328Z,860.33
2017-08-28T07:32:27.323Z,860.33
2017-08-28T07:33:27.318Z,860.31
2017-08-28T07:34:27.312Z,860.35
2017-08-28T07:35:27.312Z,860.33
2017-08-28T07:36:27.400Z,860.36
2017-08-28T07:37:27.294Z,860.37
2017-08-28T07:38:27.288Z,860.32
2017-08-28T07:39:27.283Z,860.37
2017-08-28T07:40:27.279Z,860.39
2017-08-28T07:41:27.287Z,860.39
2017-08-28T07:42:27.367Z,860.36
2017-08-28T07:43:27.260Z,860.32
2017-08-28T07:44:27.354Z,860.34
2017-08-28T07:45:27.249Z,860.33
2017-08-28T07:46:27.242Z,860.35
2017-08-28T07:47:27.237Z,860.37
2017-08-28T07:48:27.231Z,860.41
2017-08-28T07:49:27.228Z,860.40
2017-08-28T07:50:27.321Z,860.41
2017-08-28T07:51:27.221Z,860.43
2017-08-28T07:52:27.210Z,860.47
2017-08-28T07:53:27.204Z,860.44
2017-08-28T07:54:27.198Z,860.47
2017-08-28T07:55:27.194Z,860.48
2017-08-28T07:56:27.291Z,860.47
2017-08-28T07:57:27.193Z,860.46
2017-08-28T07:58:27.179Z,860.46
2017-08-28T07:59:27.172Z,860.50
2017-08-28T08:00:27.266Z,860.50
2017-08-28T08:01:27.164Z,860.53
2017-08-28T08:02:27.257Z,860.52
2017-08-28T08:03:27.151Z,860.53
2017-08-28T08:04:27.146Z,860.55
2017-08-28T08:05:27.144Z,860.58
2017-08-28T08:06:27.136Z,860.60
2017-08-28T08:07:27.131Z,860.62
2017-08-28T08:08:27.226Z,860.61
2017-08-28T08:09:27.126Z,860.66
2017-08-28T08:10:27.114Z,860.66
2017-08-28T08:11:27.112Z,860.69
2017-08-28T08:12:27.108Z,860.59
2017-08-28T08:13:27.105Z,860.62
2017-08-28T08:14:27.197Z,860.68
2017-08-28T08:15:27.093Z,860.65
2017-08-28T08:16:27.086Z,860.66
2017-08-28T08:17:27.083Z,860.69
2017-08-28T08:18:27.079Z,860.69
2017-08-28T08:19:27.074Z,860.71
2017-08-28T08:20:27.169Z,860.66
2017-08-28T08:21:27.066Z,860.70
2017-08-28T08:22:27.061Z,860.72
2017-08-28T08:23:27.058Z,860.73
2017-08-28T08:24:27.053Z,860.73
2017-08-28T08:25:27.049Z,860.66
2017-08-28T08:26:27.145Z,860.66
2017-08-28T08:27:27.041Z,860.70
2017-08-28T08:28:27.036Z,860.72
2017-08-28T08:29:27.033Z,860.72
2017-08-28T08:30:27.032Z,860.68
2017-08-28T08:31:27.025Z,860.70
2017-08-28T08:32:27.127Z,860.70
2017-08-28T08:33:27.017Z,860.76
2017-08-28T08:34:27.014Z,860.76
2017-08-28T08:35:27.009Z,860.77
2017-08-28T08:36:27.007Z,860.78
2017-08-28T08:37:27.002Z,860.76
2017-08-28T08:38:27.099Z,860.78
2017-08-28T08:39:26.994Z,860.83
2017-08-28T08:40:26.991Z,860.79
2017-08-28T08:41:26.989Z,860.79
2017-08-28T08:42:26.985Z,860.73
2017-08-28T08:43:26.980Z,860.78
2017-08-28T08:44:27.078Z,860.78
2017-08-28T08:45:26.975Z,860.77
2017-08-28T08:46:26.971Z,860.76
2017-08-28T08:47:26.967Z,860.73
2017-08-28T08:48:26.964Z,860.80
2017-08-28T08:49:26.961Z,860.79
2017-08-28T08:50:27.058Z,860.76
2017-08-28T08:51:26.954Z,860.73
2017-08-28T08:52:26.952Z,860.69
2017-08-28T08:53:26.948Z,860.65
2017-08-28T08:54:26.946Z,860.66
2017-08-28T08:55:26.941Z,860.59
2017-08-28T08:56:27.043Z,860.53
2017-08-28T08:57:26.937Z,860.47
2017-08-28T08:58:26.933Z,860.41
2017-08-28T08:59:26.931Z,860.41
2017-08-28T09:00:26.929Z,860.40
2017-08-28T09:01:26.926Z,860.37
2017-08-28T09:02:27.024Z,860.38
2017-08-28T09:03:26.919Z,860.35
2017-08-28T09:04:26.916Z,860.39
2017-08-28T09:05:26.914Z,860.38
2017-08-28T09:06:26.917Z,860.36
2017-08-28T09:07:26.909Z,860.31
2017-08-28T09:08:27.006Z,860.39
2017-08-28T09:09:26.902Z,860.38
2017-08-28T09:10:26.901Z,860.34
2017-08-28T09:11:26.897Z,860.34
2017-08-28T09:12:26.894Z,860.34
2017-08-28T09:13:26.891Z,860.33
2017-08-28T09:14:26.988Z,860.33
2017-08-28T09:15:26.885Z,860.31
2017-08-28T09:16:26.881Z,860.36
2017-08-28T09:17:26.879Z,860.32
2017-08-28T09:18:26.878Z,860.37
2017-08-28T09:19:26.873Z,860.31
2017-08-28T09:20:26.972Z,860.31
2017-08-28T09:21:26.867Z,860.36
2017-08-28T09:22:26.865Z,860.36
2017-08-28T09:23:26.861Z,860.33
2017-08-28T09:24:26.862Z,860.35
2017-08-28T09:25:26.855Z,860.35
2017-08-28T09:26:26.960Z,860.33
2017-08-28T09:27:26.849Z,860.34
2017-08-28T09:28:26.846Z,860.34
2017-08-28T09:29:26.843Z,860.36
2017-08-28T09:30:26.840Z,860.29
2017-08-28T09:31:26.836Z,860.31
2017-08-28T09:32:26.934Z,860.32
2017-08-28T09:33:26.831Z,860.29
2017-08-28T09:34:26.828Z,860.29
2017-08-28T09:35:26.825Z,860.28
2017-08-28T09:36:26.822Z,860.30
2017-08-28T09:37:26.819Z,860.29
2017-08-28T09:38:26.917Z,860.30
2017-08-28T09:39:26.814Z,860.30
2017-08-28T09:40:26.811Z,860.29
2017-08-28T09:41:26.808Z,860.33
2017-08-28T09:42:26.805Z,860.35
2017-08-28T09:43:26.802Z,860.42
2017-08-28T09:44:26.898Z,860.37
2017-08-28T09:45:26.795Z,860.43
2017-08-28T09:46:26.793Z,860.44
2017-08-28T09:47:26.790Z,860.46
2017-08-28T09:48:26.787Z,860.46
2017-08-28T09:49:26.783Z,860.46
2017-08-28T09:50:26.880Z,860.43
2017-08-28T09:51:26.776Z,860.38
2017-08-28T09:52:26.774Z,860.38
2017-08-28T09:53:26.771Z,860.37
2017-08-28T09:54:26.768Z,860.38
2017-08-28T09:55:26.764Z,860.34
2017-08-28T09:56:26.860Z,860.32
2017-08-28T09:57:26.759Z,860.35
2017-08-28T09:58:26.758Z,860.32
2017-08-28T09:59:26.751Z,860.36
2017-08-28T10:00:26.753Z,860.33
2017-08-28T10:01:26.755Z,860.34
2017-08-28T10:02:26.841Z,860.30
2017-08-28T10:03:26.739Z,860.31
2017-08-28T10:04:26.733Z,860.32
2017-08-28T10:05:26.731Z,860.30
2017-08-28T10:06:26.728Z,860.31
2017-08-28T10:07:26.724Z,860.29
2017-08-28T10:08:26.822Z,860.31
2017-08-28T10:09:26.718Z,860.27
2017-08-28T10:10:26.714Z,860.26
2017-08-28T10:11:26.712Z,860.27
2017-08-28T10:12:26.708Z,860.27
2017-08-28T10:13:26.704Z,860.28
2017-08-28T10:14:26.801Z,860.25
2017-08-28T10:15:26.698Z,860.25
2017-08-28T10:16:26.694Z,860.21
2017-08-28T10:17:26.692Z,860.25
2017-08-28T10:18:26.688Z,860.21
2017-08-28T10:19:26.684Z,860.22
2017-08-28T10:20:26.779Z,860.24
2017-08-28T10:21:26.677Z,860.23
2017-08-28T10:22:26.675Z,860.19
2017-08-28T10:23:26.674Z,860.21
2017-08-28T10:24:26.667Z,860.22
2017-08-28T10:25:26.664Z,860.22
2017-08-28T10:26:26.765Z,860.23
2017-08-28T10:27:26.659Z,860.18
2017-08-28T10:28:26.654Z,860.20
2017-08-28T10:29:26.651Z,860.20
2017-08-28T10:30:26.647Z,860.24
2017-08-28T10:31:26.645Z,860.22
2017-08-28T10:32:26.741Z,860.23
2017-08-28T10:33:26.638Z,860.21
2017-08-28T10:34:26.635Z,860.20
2017-08-28T10:35:26.639Z,860.20
2017-08-28T10:36:26.628Z,860.20
2017-08-28T10:37:26.626Z,860.22
2017-08-28T10:38:26.724Z,860.24
2017-08-28T10:39:26.620Z,860.26
2017-08-28T10:40:26.616Z,860.22
2017-08-28T10:41:26.615Z,860.22
2017-08-28T10:42:26.710Z,860.23
2017-08-28T10:43:26.607Z,860.25
2017-08-28T10:44:26.705Z,860.28
2017-08-28T10:45:26.601Z,860.30
2017-08-28T10:46:26.599Z,860.29
2017-08-28T10:47:26.596Z,860.26
2017-08-28T10:48:26.592Z,860.25
2017-08-28T10:49:26.589Z,860.26
2017-08-28T10:50:26.688Z,860.24
2017-08-28T10:51:26.583Z,860.24
2017-08-28T10:52:26.581Z,860.23
2017-08-28T10:53:26.578Z,860.21
2017-08-28T10:54:26.576Z,860.23
2017-08-28T10:55:26.572Z,860.17
2017-08-28T10:56:26.670Z,860.19
2017-08-28T10:57:26.569Z,860.17
2017-08-28T10:58:26.565Z,860.18
2017-08-28T10:59:26.562Z,860.13
2017-08-28T11:00:26.559Z,860.18
2017-08-28T11:01:26.556Z,860.15
2017-08-28T11:02:26.704Z,860.15
2017-08-28T11:03:26.550Z,860.12
2017-08-28T11:04:26.548Z,860.18
2017-08-28T11:05:26.546Z,860.15
2017-08-28T11:06:26.544Z,860.12
2017-08-28T11:07:26.540Z,860.11
2017-08-28T11:08:26.639Z,860.09
2017-08-28T11:09:26.536Z,860.14
2017-08-28T11:10:26.534Z,860.13
2017-08-28T11:11:26.531Z,860.10
2017-08-28T11:12:26.529Z,860.10
2017-08-28T11:13:26.525Z,860.12
2017-08-28T11:14:26.624Z,860.07
2017-08-28T11:15:26.523Z,860.06
2017-08-28T11:16:26.520Z,860.06
2017-08-28T11:17:26.517Z,860.07
2017-08-28T11:18:26.515Z,860.03
2017-08-28T11:19:26.514Z,860.06
2017-08-28T11:20:26.608Z,860.06
2017-08-28T11:21:26.508Z,860.06
2017-08-28T11:22:26.506Z,860.07
2017-08-28T11:23:26.503Z,860.06
2017-08-28T11:24:26.500Z,860.08
2017-08-28T11:25:26.501Z,860.09
2017-08-28T11:26:26.600Z,860.11
2017-08-28T11:27:26.493Z,860.05
2017-08-28T11:28:26.490Z,860.11
2017-08-28T11:29:26.490Z,860.04
2017-08-28T11:30:26.488Z,860.05
2017-08-28T11:31:26.486Z,860.02
2017-08-28T11:32:26.592Z,860.01
2017-08-28T11:33:26.482Z,860.02
2017-08-28T11:34:26.480Z,859.95
2017-08-28T11:35:26.477Z,859.97
2017-08-28T11:36:26.475Z,859.95
2017-08-28T11:37:26.475Z,859.92
2017-08-28T11:38:26.573Z,859.92
2017-08-28T11:39:26.469Z,859.90
2017-08-28T11:40:26.467Z,859.90
2017-08-28T11:41:26.468Z,859.86
2017-08-28T11:42:26.466Z,859.83
2017-08-28T11:43:26.464Z,859.81
2017-08-28T11:44:26.563Z,859.82
2017-08-28T11:45:26.462Z,859.89
2017-08-28T11:46:26.460Z,859.85
2017-08-28T11:47:26.457Z,859.83
2017-08-28T11:48:26.456Z,859.80
2017-08-28T11:49:26.456Z,859.77
2017-08-28T11:50:26.559Z,859.76
2017-08-28T11:51:26.454Z,859.78
2017-08-28T11:52:26.457Z,859.79
2017-08-28T11:53:26.451Z,859.76
2017-08-28T11:54:26.450Z,859.70
2017-08-28T11:55:26.447Z,859.72
2017-08-28T11:56:26.745Z,859.68
2017-08-28T11:57:26.445Z,859.69
2017-08-28T11:58:26.445Z,859.66
2017-08-28T11:59:26.442Z,859.65
2017-08-28T12:00:26.454Z,859.65
2017-08-28T12:01:26.442Z,859.66
2017-08-28T12:02:26.541Z,859.64
2017-08-28T12:03:26.439Z,859.58
2017-08-28T12:04:26.439Z,859.63
2017-08-28T12:05:26.438Z,859.62
2017-08-28T12:06:26.438Z,859.62
2017-08-28T12:07:26.434Z,859.61
2017-08-28T12:08:26.734Z,859.60
2017-08-28T12:09:26.735Z,859.59
2017-08-28T12:10:26.433Z,859.56
2017-08-28T12:11:26.435Z,859.59
2017-08-28T12:12:26.431Z,859.60
2017-08-28T12:13:26.428Z,859.58
2017-08-28T12:14:26.477Z,859.56
2017-08-28T12:15:26.425Z,859.52
2017-08-28T12:16:26.428Z,859.58
2017-08-28T12:17:26.424Z,859.59
2017-08-28T12:18:26.423Z,859.57
2017-08-28T12:19:26.523Z,859.54
2017-08-28T12:20:26.522Z,859.53
2017-08-28T12:21:26.422Z,859.48
2017-08-28T12:22:26.422Z,859.53
2017-08-28T12:23:26.419Z,859.47
2017-08-28T12:24:26.419Z,859.53
2017-08-28T12:25:26.418Z,859.49
2017-08-28T12:26:26.518Z,859.49
2017-08-28T12:27:26.416Z,859.54
2017-08-28T12:28:26.416Z,859.50